Time;durP1;ratioP1;P1;durP2;ratioP2;P2;SDS_P1;SDS_P2;PMS_P1;PMS_P2;Temp;Humidity;BMP_temperature;BMP_pressure;BME280_temperature;BME280_humidity;BME280_pressure;Samples;Min_cycle;Max_cycle;Signal;HPM_P1;HPM_P2
2021/05/15 00:00:51;;;;;;;20.00;8.23;;;;;;;13.23;68.87;99909.53;124976;1105;104498;-76
2021/05/15 00:03:21;;;;;;;20.23;7.47;;;;;;;13.19;68.45;99920.00;125002;1105;104262;-77
2021/05/15 00:05:51;;;;;;;15.90;7.23;;;;;;;13.18;68.39;99924.36;124903;1102;104255;-77
2021/05/15 00:08:21;;;;;;;15.53;7.50;;;;;;;13.21;68.45;99924.41;125082;1102;104178;-76
2021/05/15 00:10:51;;;;;;;18.20;8.20;;;;;;;13.26;69.00;99925.39;124986;1102;104219;-77
2021/05/15 00:13:23;;;;;;;23.00;11.60;;;;;;;13.25;69.19;99920.09;125156;1102;104181;-77
2021/05/15 00:15:54;;;;;;;21.00;9.80;;;;;;;13.21;68.54;99929.68;125238;1102;104171;-78
2021/05/15 00:18:25;;;;;;;22.60;9.57;;;;;;;13.22;68.93;99922.69;125105;1102;105190;-78
2021/05/15 00:20:57;;;;;;;19.63;9.00;;;;;;;13.19;68.64;99920.88;125159;1102;104224;-78
2021/05/15 00:23:26;;;;;;;20.83;9.13;;;;;;;13.18;68.64;99927.00;125121;1102;104153;-77
2021/05/15 00:25:59;;;;;;;20.00;9.17;;;;;;;13.17;69.33;99938.42;125187;1102;104150;-77
2021/05/15 00:28:33;;;;;;;18.80;8.70;;;;;;;13.12;68.82;99933.08;125152;1102;104245;-76
2021/05/15 00:31:01;;;;;;;;;;;;;;;13.10;69.19;99936.53;125178;1102;104214;-77
2021/05/15 00:33:31;;;;;;;17.40;8.03;;;;;;;13.07;69.19;99941.75;125169;1102;104182;-78
2021/05/15 00:36:05;;;;;;;16.60;7.63;;;;;;;13.05;69.43;99939.09;125183;1102;104165;-77
2021/05/15 00:38:35;;;;;;;14.58;6.55;;;;;;;13.06;69.26;99940.00;125043;1102;104688;-77
2021/05/15 00:41:05;;;;;;;18.85;6.65;;;;;;;13.04;69.30;99952.23;125149;1102;104301;-76
2021/05/15 00:43:35;;;;;;;12.53;6.53;;;;;;;12.98;69.36;99950.41;125141;1102;104252;-77
2021/05/15 00:46:05;;;;;;;11.97;6.00;;;;;;;12.94;69.45;99952.07;125263;1102;104268;-77
2021/05/15 00:48:35;;;;;;;13.50;6.50;;;;;;;12.89;69.58;99953.75;125149;1099;104274;-78
2021/05/15 00:51:06;;;;;;;14.83;6.50;;;;;;;12.85;69.69;99951.91;125126;1102;104146;-77
2021/05/15 00:53:35;;;;;;;12.07;6.30;;;;;;;12.85;69.43;99958.94;125207;1099;104205;-77
2021/05/15 00:56:07;;;;;;;15.33;6.30;;;;;;;12.80;69.31;99953.59;125199;1102;104303;-78
2021/05/15 00:58:40;;;;;;;16.07;7.00;;;;;;;12.75;69.22;99961.41;125191;1102;105167;-78
2021/05/15 01:01:09;;;;;;;20.73;7.20;;;;;;;12.72;69.27;99971.00;125281;1102;104261;-75
2021/05/15 01:03:41;;;;;;;15.70;7.43;;;;;;;12.72;69.56;99965.73;125205;1102;104303;-77
2021/05/15 01:06:11;;;;;;;18.87;8.10;;;;;;;12.73;69.71;99965.77;125235;1102;104527;-77
2021/05/15 01:08:46;;;;;;;18.23;7.60;;;;;;;12.70;69.45;99964.80;125226;1102;104136;-77
2021/05/15 01:11:18;;;;;;;17.67;8.33;;;;;;;12.67;69.73;99967.38;125216;1102;104207;-76
2021/05/15 01:14:00;;;;;;;17.93;7.73;;;;;;;12.64;69.64;99967.34;125256;1102;104133;-77
2021/05/15 01:16:35;;;;;;;16.73;7.92;;;;;;;12.55;69.65;99958.39;125229;1102;104252;-76
2021/05/15 01:19:06;;;;;;;21.03;8.70;;;;;;;12.49;69.65;99953.02;125180;1102;104698;-77
2021/05/15 01:21:37;;;;;;;19.47;7.93;;;;;;;12.44;69.64;99959.94;125168;1102;104584;-77
2021/05/15 01:24:09;;;;;;;17.83;7.60;;;;;;;12.43;69.73;99963.42;125146;1102;104278;-77
2021/05/15 01:26:38;;;;;;;18.37;8.60;;;;;;;12.45;69.75;99956.47;125205;1102;104298;-77
2021/05/15 01:29:11;;;;;;;19.07;8.23;;;;;;;12.47;69.87;99962.63;125217;1102;104149;-78
2021/05/15 01:31:41;;;;;;;18.40;8.50;;;;;;;12.48;69.78;99966.14;125177;1102;104394;-78
2021/05/15 01:34:11;;;;;;;22.07;8.70;;;;;;;12.45;69.88;99966.08;125170;1101;104255;-77
2021/05/15 01:36:42;;;;;;;26.03;8.93;;;;;;;12.40;69.81;99976.52;125151;1102;104229;-77
2021/05/15 01:39:15;;;;;;;19.37;8.50;;;;;;;12.36;69.97;99972.07;125183;1102;104198;-78
2021/05/15 01:41:46;;;;;;;20.80;8.37;;;;;;;12.31;70.05;99976.33;125228;1102;104184;-77
2021/05/15 01:44:17;;;;;;;21.20;8.40;;;;;;;12.30;70.35;99982.47;125212;1102;104258;-77
2021/05/15 01:46:47;;;;;;;19.80;7.73;;;;;;;12.32;70.21;99988.64;125182;1102;101860;-78
2021/05/15 01:49:19;;;;;;;13.30;6.37;;;;;;;12.34;70.11;99989.55;125177;1102;104323;-78
2021/05/15 01:51:50;;;;;;;15.90;6.60;;;;;;;12.37;70.05;99998.41;125442;1102;109566;-78
2021/05/15 01:54:20;;;;;;;15.73;6.93;;;;;;;12.36;70.21;100003.64;125405;1102;104111;-78
2021/05/15 01:56:50;;;;;;;18.97;7.50;;;;;;;12.30;69.97;99999.13;125482;1099;104680;-77
2021/05/15 01:59:19;;;;;;;15.77;6.97;;;;;;;12.28;70.21;99994.68;125162;1099;104843;-77
2021/05/15 02:01:49;;;;;;;20.50;8.00;;;;;;;12.23;70.12;99999.84;125157;1102;102006;-77
2021/05/15 02:04:20;;;;;;;13.80;6.80;;;;;;;12.20;70.22;100005.04;125282;1099;104181;-78
2021/05/15 02:06:49;;;;;;;17.80;7.13;;;;;;;12.17;70.15;100003.25;125229;1099;104241;-78
2021/05/15 02:09:20;;;;;;;15.60;7.03;;;;;;;12.16;70.20;100011.98;125202;1099;104558;-78
2021/05/15 02:11:51;;;;;;;14.87;6.63;;;;;;;12.13;70.25;100005.78;125159;1102;104201;-77
2021/05/15 02:14:22;;;;;;;15.83;6.83;;;;;;;12.12;70.39;100010.13;125216;1099;104319;-78
2021/05/15 02:16:51;;;;;;;13.37;6.33;;;;;;;12.15;70.41;100017.22;125234;1099;104159;-78
2021/05/15 02:19:21;;;;;;;12.93;6.53;;;;;;;12.12;70.16;100017.15;125241;1099;104761;-78
2021/05/15 02:22:11;;;;;;;18.00;7.27;;;;;;;12.06;70.09;100015.30;125229;1099;101919;-77
2021/05/15 02:24:45;;;;;;;16.53;7.17;;;;;;;12.06;70.54;100010.03;125185;1102;104245;-78
2021/05/15 02:27:18;;;;;;;15.23;7.20;;;;;;;12.03;70.61;100009.97;125264;1102;104188;-78
2021/05/15 02:29:50;;;;;;;16.20;6.53;;;;;;;11.99;70.62;100014.25;125626;1102;104223;-78
2021/05/15 02:32:28;;;;;;;11.87;6.33;;;;;;;11.98;70.45;100012.49;125283;1102;104194;-77
2021/05/15 02:35:03;;;;;;;12.53;5.67;;;;;;;11.97;70.18;100018.59;125262;1101;104188;-78
2021/05/15 02:37:38;;;;;;;14.67;6.93;;;;;;;12.00;70.07;100010.78;125293;1099;102262;-77
2021/05/15 02:40:11;;;;;;;12.37;6.30;;;;;;;12.03;70.63;100015.23;125279;1102;104178;-77
2021/05/15 02:42:41;;;;;;;18.90;7.07;;;;;;;12.01;70.39;100012.56;125295;1100;110256;-78
2021/05/15 02:45:14;;;;;;;17.17;7.17;;;;;;;11.94;70.27;100017.65;125653;1099;104145;-77
2021/05/15 02:47:46;;;;;;;18.20;8.00;;;;;;;11.92;70.66;100019.30;125229;1099;104188;-78
2021/05/15 02:50:22;;;;;;;15.87;7.27;;;;;;;11.91;70.48;100025.44;125272;1102;104464;-78
2021/05/15 02:52:52;;;;;;;16.63;7.80;;;;;;;11.85;70.56;100019.16;125644;1102;104293;-77
2021/05/15 02:55:25;;;;;;;14.93;7.17;;;;;;;11.87;70.62;100025.37;125106;1102;104159;-77
2021/05/15 02:57:56;;;;;;;14.67;6.80;;;;;;;11.87;70.45;100028.00;125066;1102;104345;-78
2021/05/15 03:00:47;;;;;;;14.93;6.83;;;;;;;11.79;70.65;100021.65;125379;1102;102224;-78
2021/05/15 03:03:24;;;;;;;13.90;6.60;;;;;;;11.72;70.34;100019.75;125279;1102;107785;-78
2021/05/15 03:05:55;;;;;;;15.98;7.17;;;;;;;11.66;70.64;100019.61;125728;1102;104204;-77
2021/05/15 03:08:28;;;;;;;12.03;6.90;;;;;;;11.65;70.70;100025.70;125010;1105;104328;-78
2021/05/15 03:11:00;;;;;;;14.00;7.15;;;;;;;11.64;70.53;100024.83;125107;1105;104155;-78
2021/05/15 03:13:31;;;;;;;14.27;6.63;;;;;;;11.59;70.82;100023.80;125111;1105;101911;-77
2021/05/15 03:16:02;;;;;;;15.97;7.20;;;;;;;11.55;70.83;100031.61;125148;1105;104944;-78
2021/05/15 03:18:38;;;;;;;;;;;;;;;11.50;70.93;100024.49;125105;1105;104107;-76
2021/05/15 03:21:07;;;;;;;13.57;6.43;;;;;;;11.49;70.84;100033.22;125142;1105;104303;-76
2021/05/15 03:23:45;;;;;;;13.93;6.37;;;;;;;11.50;71.03;100029.75;125131;1105;104168;-75
2021/05/15 03:26:15;;;;;;;15.77;7.03;;;;;;;11.55;70.69;100034.23;125118;1105;104168;-76
2021/05/15 03:28:46;;;;;;;11.67;6.20;;;;;;;11.63;71.03;100038.81;125298;1102;104486;-75
2021/05/15 03:31:21;;;;;;;11.23;6.50;;;;;;;11.71;70.88;100043.38;125317;1102;104271;-75
2021/05/15 03:33:55;;;;;;;11.90;7.07;;;;;;;11.80;71.10;100049.72;125279;1102;104172;-75
2021/05/15 03:36:31;;;;;;;16.10;7.37;;;;;;;11.92;71.06;100050.84;125349;1102;104319;-76
2021/05/15 03:39:01;;;;;;;16.97;8.00;;;;;;;11.95;71.06;100053.58;125324;1099;104300;-76
2021/05/15 03:41:37;;;;;;;16.33;7.40;;;;;;;11.99;71.12;100052.81;125241;1102;104284;-76
2021/05/15 03:44:09;;;;;;;15.87;7.43;;;;;;;12.08;71.12;100057.41;125411;1099;104637;-76
2021/05/15 03:46:43;;;;;;;17.97;7.23;;;;;;;12.20;71.25;100060.28;125395;1102;104191;-76
2021/05/15 03:49:17;;;;;;;15.80;7.57;;;;;;;12.33;71.25;100058.83;125309;1099;102033;-76
2021/05/15 03:51:57;;;;;;;14.93;6.57;;;;;;;12.47;71.33;100059.12;125324;1102;104140;-77
2021/05/15 03:54:29;;;;;;;15.27;7.23;;;;;;;12.54;71.03;100061.91;125307;1099;107849;-76
2021/05/15 03:57:05;;;;;;;22.50;8.10;;;;;;;12.62;71.03;100062.08;125314;1102;102162;-76
2021/05/15 03:59:36;;;;;;;13.20;7.40;;;;;;;12.65;71.31;100066.48;125327;1099;104239;-76
2021/05/15 04:02:09;;;;;;;20.63;7.37;;;;;;;12.65;70.93;100063.86;125281;1099;104274;-76
2021/05/15 04:04:43;;;;;;;24.43;8.10;;;;;;;12.71;70.68;100069.25;125292;1102;118850;-76
2021/05/15 04:07:22;;;;;;;15.33;7.53;;;;;;;12.80;71.50;100076.45;125285;1102;104329;-77
2021/05/15 04:09:54;;;;;;;17.83;7.60;;;;;;;12.86;71.05;100071.31;125467;1102;104275;-77
2021/05/15 04:12:33;;;;;;;15.47;6.97;;;;;;;12.95;71.14;100061.83;125403;1101;105062;-77
2021/05/15 04:15:09;;;;;;;13.43;7.30;;;;;;;13.07;71.64;100065.55;125341;1102;105611;-77
2021/05/15 04:17:55;;;;;;;17.93;7.30;;;;;;;13.17;71.31;100064.87;125410;1102;102283;-77
2021/05/15 04:20:28;;;;;;;15.60;8.00;;;;;;;13.28;71.01;100072.97;125334;1102;104223;-77
2021/05/15 04:23:10;;;;;;;13.67;7.40;;;;;;;13.36;71.04;100074.02;125378;1102;104188;-78
2021/05/15 04:25:50;;;;;;;19.90;8.00;;;;;;;13.42;71.11;100082.03;125401;1102;101797;-76
2021/05/15 04:28:23;;;;;;;15.70;7.97;;;;;;;13.47;71.19;100075.08;125391;1102;104220;-77
2021/05/15 04:31:01;;;;;;;17.42;8.05;;;;;;;13.53;71.71;100079.58;125411;1102;104424;-77
2021/05/15 04:33:32;;;;;;;15.70;7.37;;;;;;;13.56;71.31;100074.36;125294;1102;102058;-77
2021/05/15 04:36:04;;;;;;;;;;;;;;;13.63;71.46;100076.25;125335;1102;104344;-77
2021/05/15 04:38:36;;;;;;;16.40;7.60;;;;;;;13.72;70.84;100082.52;125270;1102;104168;-77
2021/05/15 04:41:07;;;;;;;14.20;7.10;;;;;;;13.78;70.99;100079.98;125320;1101;104239;-77
2021/05/15 04:43:37;;;;;;;14.87;7.43;;;;;;;13.86;71.32;100077.47;125464;1099;102277;-77
2021/05/15 04:46:09;;;;;;;19.67;7.87;;;;;;;14.01;71.79;100083.86;125255;1099;104175;-77
2021/05/15 04:48:39;;;;;;;16.37;7.67;;;;;;;14.07;71.58;100087.44;125375;1099;104195;-77
2021/05/15 04:51:08;;;;;;;17.13;8.67;;;;;;;14.14;71.66;100091.95;125310;1102;104165;-77
2021/05/15 04:53:38;;;;;;;16.00;8.00;;;;;;;14.18;71.87;100093.79;126164;1099;104341;-77
2021/05/15 04:56:11;;;;;;;16.57;8.27;;;;;;;14.22;71.55;100089.43;125295;1102;101889;-76
2021/05/15 04:58:43;;;;;;;19.73;8.57;;;;;;;14.26;71.34;100100.05;125248;1099;104171;-76
2021/05/15 05:01:13;;;;;;;16.67;7.93;;;;;;;14.33;71.89;100098.37;125233;1103;104702;-77
2021/05/15 05:03:43;;;;;;;16.53;8.07;;;;;;;14.43;70.77;100102.02;125230;1099;104270;-77
2021/05/15 05:06:12;;;;;;;17.07;8.67;;;;;;;14.52;70.94;100096.86;125333;1102;104156;-77
2021/05/15 05:08:42;;;;;;;16.43;8.57;;;;;;;14.59;71.27;100106.66;125468;1102;103175;-76
2021/05/15 05:11:12;;;;;;;20.63;9.07;;;;;;;14.68;70.87;100098.89;126150;1099;104318;-77
2021/05/15 05:13:42;;;;;;;20.37;9.90;;;;;;;14.78;71.80;100101.64;125168;1101;104247;-77
2021/05/15 05:16:11;;;;;;;18.50;8.83;;;;;;;14.86;71.18;100099.97;125248;1099;104175;-77
2021/05/15 05:18:43;;;;;;;19.23;8.97;;;;;;;14.95;71.59;100102.72;125236;1099;104249;-77
2021/05/15 05:21:14;;;;;;;16.63;8.40;;;;;;;15.03;71.42;100106.33;125220;1102;103005;-77
2021/05/15 05:23:46;;;;;;;17.77;8.47;;;;;;;15.14;71.52;100108.21;125228;1102;104354;-76
2021/05/15 05:26:19;;;;;;;14.50;7.17;;;;;;;15.21;71.21;100104.78;125313;1102;105364;-76
2021/05/15 05:28:51;;;;;;;16.40;7.60;;;;;;;15.29;71.88;100108.37;125218;1102;104159;-76
2021/05/15 05:31:21;;;;;;;11.95;6.50;;;;;;;15.38;70.69;100113.76;125212;1102;104383;-76
2021/05/15 05:33:50;;;;;;;14.27;5.53;;;;;;;15.46;71.22;100112.06;125207;1102;104332;-76
2021/05/15 05:36:20;;;;;;;6.20;3.80;;;;;;;15.56;71.31;100102.45;125148;1102;103992;-77
2021/05/15 05:38:50;;;;;;;7.63;3.70;;;;;;;15.63;71.16;100104.29;125235;1102;104352;-77
2021/05/15 05:41:20;;;;;;;9.43;2.90;;;;;;;15.73;70.18;100109.66;125173;1102;104412;-77
2021/05/15 05:43:50;;;;;;;6.37;2.77;;;;;;;15.83;71.13;100106.23;125239;1099;102242;-77
2021/05/15 05:46:20;;;;;;;8.03;2.53;;;;;;;15.91;70.93;100112.49;125131;1099;104252;-77
2021/05/15 05:48:50;;;;;;;5.03;2.97;;;;;;;15.98;70.62;100113.41;125201;1102;104374;-78
2021/05/15 05:51:19;;;;;;;5.20;2.40;;;;;;;16.04;70.05;100116.11;125269;1102;104251;-78
2021/05/15 05:53:49;;;;;;;6.70;2.50;;;;;;;16.11;69.98;100111.73;125194;1102;104264;-78
2021/05/15 05:56:19;;;;;;;6.80;2.60;;;;;;;16.17;70.54;100117.97;125157;1102;104264;-79
2021/05/15 05:58:49;;;;;;;4.13;2.27;;;;;;;16.24;70.34;100115.37;125238;1102;104210;-77
2021/05/15 06:01:18;;;;;;;3.87;2.10;;;;;;;16.30;70.07;100108.34;125191;1102;104210;-77
2021/05/15 06:03:48;;;;;;;4.60;1.90;;;;;;;16.40;70.09;100111.05;124989;1102;104386;-78
2021/05/15 06:06:20;;;;;;;2.57;1.90;;;;;;;16.48;69.91;100118.14;125107;1102;104191;-78
2021/05/15 06:08:49;;;;;;;6.23;1.77;;;;;;;16.54;69.79;100112.00;125145;1099;104194;-78
2021/05/15 06:11:19;;;;;;;3.93;2.17;;;;;;;16.61;69.90;100112.91;125134;1102;104143;-77
2021/05/15 06:13:48;;;;;;;2.47;1.90;;;;;;;16.68;69.00;100114.72;125148;1099;104326;-78
2021/05/15 06:16:18;;;;;;;2.10;1.90;;;;;;;16.73;69.27;100106.79;125662;1099;102031;-78
2021/05/15 06:18:48;;;;;;;4.57;1.90;;;;;;;16.79;68.62;100109.47;126192;1099;104141;-78
2021/05/15 06:21:18;;;;;;;7.17;2.10;;;;;;;16.83;68.81;100104.19;126220;1099;104144;-76
2021/05/15 06:23:47;;;;;;;4.77;2.60;;;;;;;16.89;68.76;100104.24;125272;1100;104442;-76
2021/05/15 06:26:16;;;;;;;3.40;1.83;;;;;;;16.97;68.66;100090.11;125714;1099;104596;-76
2021/05/15 06:28:46;;;;;;;2.53;1.80;;;;;;;17.05;68.27;100093.69;125160;1102;104281;-76
2021/05/15 06:31:15;;;;;;;4.13;1.67;;;;;;;17.12;68.10;100100.76;125160;1099;104182;-77
2021/05/15 06:33:44;;;;;;;2.13;1.70;;;;;;;17.22;68.41;100102.56;125232;1099;104189;-77
2021/05/15 06:36:14;;;;;;;6.03;1.57;;;;;;;17.33;68.00;100105.23;125479;1099;104146;-78
2021/05/15 06:38:43;;;;;;;4.87;1.60;;;;;;;17.45;67.84;100098.17;125348;1102;104165;-77
2021/05/15 06:41:12;;;;;;;2.05;1.20;;;;;;;17.57;67.94;100099.06;126193;1099;104150;-78
2021/05/15 06:43:42;;;;;;;5.10;1.37;;;;;;;17.68;67.71;100100.84;126248;1099;104188;-78
2021/05/15 06:46:11;;;;;;;5.17;1.10;;;;;;;17.79;67.38;100096.41;125900;1099;104255;-77
2021/05/15 06:48:40;;;;;;;4.63;1.60;;;;;;;17.90;67.15;100096.45;125160;1099;104233;-78
2021/05/15 06:51:10;;;;;;;11.40;3.40;;;;;;;18.02;66.93;100100.88;125104;1099;104188;-78
2021/05/15 06:53:39;;;;;;;8.17;3.10;;;;;;;18.14;66.95;100098.20;125156;1099;104229;-78
2021/05/15 06:56:08;;;;;;;4.60;2.07;;;;;;;18.27;66.37;100097.27;125292;1099;104261;-77
2021/05/15 06:58:41;;;;;;;12.47;3.90;;;;;;;18.45;66.62;100095.45;126201;1099;104230;-78
2021/05/15 07:01:13;;;;;;;16.93;4.00;;;;;;;18.61;66.48;100104.27;126277;1099;104261;-77
2021/05/15 07:03:45;;;;;;;6.63;2.50;;;;;;;18.77;66.03;100107.75;126226;1099;104402;-78
2021/05/15 07:06:14;;;;;;;8.67;3.17;;;;;;;18.91;66.76;100103.28;125226;1102;104299;-78
2021/05/15 07:08:43;;;;;;;2.73;1.80;;;;;;;19.04;65.56;100109.41;125243;1099;104210;-77
2021/05/15 07:11:12;;;;;;;3.47;1.40;;;;;;;19.19;66.29;100106.67;125206;1102;104146;-77
2021/05/15 07:13:42;;;;;;;5.10;1.40;;;;;;;19.34;66.12;100103.05;125102;1102;104281;-77
2021/05/15 07:16:11;;;;;;;4.27;1.33;;;;;;;19.55;66.18;100103.78;125132;1103;104306;-77
2021/05/15 07:18:41;;;;;;;3.07;1.40;;;;;;;19.71;66.35;100110.77;126200;1099;105425;-77
2021/05/15 07:21:10;;;;;;;1.63;1.33;;;;;;;19.89;65.27;100108.88;125276;1101;104274;-77
2021/05/15 07:23:39;;;;;;;2.07;1.20;;;;;;;20.06;65.48;100117.58;125290;1102;104162;-77
2021/05/15 07:26:11;;;;;;;8.53;1.60;;;;;;;20.22;65.13;100110.32;126262;1099;104220;-77
2021/05/15 07:28:40;;;;;;;1.17;0.83;;;;;;;20.35;64.51;100112.86;125182;1099;104159;-77
2021/05/15 07:31:10;;;;;;;1.10;0.97;;;;;;;20.42;64.27;100111.91;125181;1099;104143;-78
2021/05/15 07:33:39;;;;;;;0.70;0.70;;;;;;;20.57;63.24;100113.50;125159;1099;104219;-78
2021/05/15 07:36:09;;;;;;;1.07;0.80;;;;;;;20.71;62.04;100116.94;125084;1102;104254;-76
2021/05/15 07:38:47;;;;;;;0.70;0.70;;;;;;;20.85;62.62;100113.20;125048;1102;104194;-77
2021/05/15 07:41:18;;;;;;;0.93;0.70;;;;;;;20.99;62.05;100104.13;125236;1099;104162;-77
2021/05/15 07:43:47;;;;;;;6.27;1.00;;;;;;;21.11;61.91;100107.52;125370;1100;104190;-77
2021/05/15 07:46:17;;;;;;;5.93;1.37;;;;;;;21.27;61.89;100110.85;126299;1099;104143;-77
2021/05/15 07:48:48;;;;;;;1.23;0.93;;;;;;;21.40;61.41;100106.23;125228;1099;104142;-77
2021/05/15 07:51:21;;;;;;;1.60;1.00;;;;;;;21.56;61.60;100112.25;125161;1099;104150;-77
2021/05/15 07:53:54;;;;;;;2.03;1.27;;;;;;;21.72;60.75;100111.08;125037;1099;104192;-77
2021/05/15 07:56:24;;;;;;;1.43;0.80;;;;;;;21.83;60.82;100119.81;125069;1099;104277;-77
2021/05/15 07:58:53;;;;;;;0.70;0.70;;;;;;;21.89;59.87;100119.72;125097;1099;104159;-78
2021/05/15 08:01:22;;;;;;;0.60;0.60;;;;;;;21.89;59.86;100117.05;125196;1099;104172;-78
2021/05/15 08:03:54;;;;;;;1.03;0.80;;;;;;;21.90;59.75;100116.12;125131;1102;104715;-77
2021/05/15 08:06:26;;;;;;;0.50;0.50;;;;;;;22.03;58.71;100114.14;125139;1102;104194;-77
2021/05/15 08:08:56;;;;;;;1.17;0.80;;;;;;;22.18;58.34;100115.64;125175;1099;104081;-77
2021/05/15 08:11:25;;;;;;;0.63;0.63;;;;;;;22.33;58.30;100116.28;125119;1099;102551;-76
2021/05/15 08:13:54;;;;;;;2.07;0.83;;;;;;;22.39;57.75;100101.03;125160;1099;104162;-77
2021/05/15 08:16:24;;;;;;;0.50;0.50;;;;;;;22.47;57.00;100111.58;125148;1102;104149;-77
2021/05/15 08:18:55;;;;;;;0.60;0.60;;;;;;;22.45;57.13;100105.36;125048;1099;104329;-77
2021/05/15 08:21:24;;;;;;;1.47;0.60;;;;;;;22.47;55.60;100105.33;125157;1100;104573;-76
2021/05/15 08:24:01;;;;;;;1.40;0.65;;;;;;;22.53;55.65;100108.79;125118;1102;104174;-76
2021/05/15 08:26:32;;;;;;;0.97;0.80;;;;;;;22.67;55.95;100103.13;125222;1102;104280;-76
2021/05/15 08:29:02;;;;;;;0.87;0.87;;;;;;;22.79;55.72;100093.98;125178;1102;104423;-77
2021/05/15 08:31:32;;;;;;;10.27;2.10;;;;;;;22.87;55.31;100107.20;125192;1102;104300;-76
2021/05/15 08:34:01;;;;;;;5.37;2.00;;;;;;;22.97;55.59;100115.00;125235;1102;104159;-77
2021/05/15 08:36:31;;;;;;;7.50;2.57;;;;;;;23.02;54.80;100100.66;125249;1102;104185;-77
2021/05/15 08:39:07;;;;;;;2.90;1.00;;;;;;;23.01;54.37;100094.40;125221;1102;104242;-77
2021/05/15 08:41:40;;;;;;;1.50;0.80;;;;;;;22.95;54.51;100090.09;125267;1102;104370;-77
2021/05/15 08:44:13;;;;;;;0.70;0.70;;;;;;;23.03;53.18;100100.62;125203;1101;104555;-77
2021/05/15 08:46:45;;;;;;;0.80;0.60;;;;;;;23.08;53.57;100097.84;125174;1102;104220;-77
2021/05/15 08:49:18;;;;;;;0.70;0.70;;;;;;;23.15;53.42;100088.77;125187;1102;104194;-77
2021/05/15 08:51:48;;;;;;;2.37;0.73;;;;;;;23.24;53.68;100088.56;125147;1102;104304;-77
2021/05/15 08:54:19;;;;;;;2.57;0.60;;;;;;;23.28;52.25;100087.59;125149;1102;104511;-77
2021/05/15 08:56:59;;;;;;;0.87;0.63;;;;;;;23.30;52.72;100084.87;125181;1102;104352;-77
2021/05/15 08:59:35;;;;;;;1.10;0.70;;;;;;;23.37;52.25;100083.80;125674;1099;104264;-78
2021/05/15 09:02:04;;;;;;;1.75;1.02;;;;;;;23.48;52.35;100083.54;125202;1099;104171;-77
2021/05/15 09:04:33;;;;;;;4.87;1.10;;;;;;;23.55;51.93;100078.94;125114;1102;104169;-78
2021/05/15 09:07:03;;;;;;;1.50;1.03;;;;;;;23.50;51.44;100076.38;125256;1099;104244;-77
2021/05/15 09:09:32;;;;;;;1.95;0.90;;;;;;;23.55;51.45;100081.62;125019;1099;104210;-77
2021/05/15 09:12:02;;;;;;;1.13;1.00;;;;;;;23.60;51.47;100082.38;125132;1099;104145;-76
2021/05/15 09:14:32;;;;;;;2.00;1.03;;;;;;;23.74;50.97;100074.86;125164;1099;104149;-77
2021/05/15 09:17:01;;;;;;;2.50;0.70;;;;;;;23.76;50.97;100074.83;125082;1099;104254;-77
2021/05/15 09:19:32;;;;;;;2.63;1.10;;;;;;;23.79;50.86;100075.62;125033;1102;104249;-77
2021/05/15 09:22:03;;;;;;;4.50;1.40;;;;;;;23.85;50.49;100082.66;125063;1099;104371;-77
2021/05/15 09:24:35;;;;;;;3.50;1.00;;;;;;;23.91;50.22;100079.83;125031;1102;104172;-77
2021/05/15 09:27:08;;;;;;;2.53;0.80;;;;;;;24.02;49.93;100075.05;125033;1099;104248;-78
2021/05/15 09:29:42;;;;;;;1.63;0.90;;;;;;;23.99;49.66;100075.14;125299;1099;104185;-77
2021/05/15 09:32:15;;;;;;;1.10;0.80;;;;;;;23.96;49.25;100067.17;126069;1099;104143;-77
2021/05/15 09:34:46;;;;;;;4.17;1.30;;;;;;;23.98;48.87;100068.04;126198;1098;104213;-78
2021/05/15 09:37:31;;;;;;;2.50;0.77;;;;;;;23.97;49.02;100065.41;125177;1099;104174;-76
2021/05/15 09:40:13;;;;;;;2.03;0.60;;;;;;;23.95;48.74;100062.77;125182;1099;104178;-77
2021/05/15 09:42:50;;;;;;;3.23;1.00;;;;;;;23.99;48.59;100061.73;125224;1097;104240;-77
2021/05/15 09:45:26;;;;;;;1.30;1.07;;;;;;;24.10;48.51;100060.59;125088;1102;104213;-76
2021/05/15 09:47:58;;;;;;;1.40;1.10;;;;;;;24.02;47.64;100067.02;125136;1099;104210;-77
2021/05/15 09:50:30;;;;;;;1.07;0.80;;;;;;;24.00;47.50;100068.00;125097;1102;104195;-77
2021/05/15 09:53:12;;;;;;;0.70;0.70;;;;;;;24.02;47.60;100064.34;126165;1099;104162;-77
2021/05/15 09:55:44;;;;;;;0.80;0.70;;;;;;;24.08;47.16;100067.80;125214;1102;104252;-76
2021/05/15 09:58:13;;;;;;;0.60;0.60;;;;;;;24.07;46.65;100058.86;125289;1099;104294;-77
2021/05/15 10:00:49;;;;;;;0.80;0.80;;;;;;;24.02;46.48;100061.66;125600;1099;104146;-77
2021/05/15 10:03:20;;;;;;;1.57;1.00;;;;;;;24.04;46.63;100061.62;125162;1099;104328;-78
2021/05/15 10:06:05;;;;;;;3.43;0.97;;;;;;;24.16;46.63;100065.78;125188;1102;104143;-76
2021/05/15 10:08:36;;;;;;;7.27;1.23;;;;;;;24.25;46.44;100065.53;125206;1099;104153;-77
2021/05/15 10:11:05;;;;;;;1.23;0.90;;;;;;;24.30;46.25;100060.91;125682;1099;104788;-77
2021/05/15 10:13:39;;;;;;;0.70;0.70;;;;;;;24.38;45.86;100060.70;126182;1099;104211;-76
2021/05/15 10:16:19;;;;;;;2.92;0.80;;;;;;;24.43;45.08;100058.75;126229;1099;104150;-77
2021/05/15 10:18:56;;;;;;;1.75;0.95;;;;;;;24.39;45.24;100057.97;125342;1099;104159;-77
2021/05/15 10:21:27;;;;;;;1.37;1.27;;;;;;;24.41;44.71;100058.80;125161;1102;104252;-77
2021/05/15 10:24:03;;;;;;;2.73;1.13;;;;;;;24.44;45.14;100057.84;125113;1102;104275;-76
2021/05/15 10:26:33;;;;;;;2.67;1.00;;;;;;;24.46;44.60;100064.02;125204;1099;104313;-77
2021/05/15 10:29:05;;;;;;;1.40;0.70;;;;;;;24.50;44.26;100063.03;125210;1099;104149;-76
2021/05/15 10:31:39;;;;;;;1.50;0.97;;;;;;;24.62;44.66;100067.20;125223;1099;104165;-77
2021/05/15 10:34:10;;;;;;;1.97;0.93;;;;;;;24.69;44.38;100062.53;125165;1099;104157;-78
2021/05/15 10:36:49;;;;;;;3.63;0.80;;;;;;;24.75;44.27;100065.89;125198;1099;104211;-77
2021/05/15 10:39:29;;;;;;;2.33;0.70;;;;;;;24.76;43.44;100056.94;125115;1102;104321;-78
2021/05/15 10:42:01;;;;;;;2.70;0.80;;;;;;;24.68;43.21;100061.66;125287;1102;104178;-76
2021/05/15 10:44:41;;;;;;;2.10;0.70;;;;;;;24.64;43.29;100064.48;126239;1099;104191;-76
2021/05/15 10:47:11;;;;;;;2.83;0.90;;;;;;;24.56;43.29;100059.30;125110;1102;104315;-76
2021/05/15 10:49:44;;;;;;;1.87;0.60;;;;;;;24.61;43.33;100061.88;125152;1099;104223;-76
2021/05/15 10:52:16;;;;;;;4.10;0.90;;;;;;;24.70;43.35;100057.12;125030;1102;104177;-76
2021/05/15 10:54:51;;;;;;;1.40;0.67;;;;;;;24.78;43.24;100066.72;125107;1102;104175;-77
2021/05/15 10:57:26;;;;;;;1.90;0.90;;;;;;;24.81;42.32;100055.90;125129;1099;104153;-77
2021/05/15 10:59:58;;;;;;;2.50;0.90;;;;;;;24.80;42.53;100054.16;125128;1100;104309;-77
2021/05/15 11:02:34;;;;;;;2.30;0.90;;;;;;;24.79;42.35;100049.70;125170;1099;104143;-77
2021/05/15 11:05:10;;;;;;;5.47;0.83;;;;;;;24.80;42.30;100046.98;125191;1099;104412;-77
2021/05/15 11:07:42;;;;;;;4.90;1.40;;;;;;;24.87;41.92;100053.03;125104;1099;104252;-77
2021/05/15 11:10:14;;;;;;;0.97;0.97;;;;;;;24.93;42.36;100047.48;125105;1102;101934;-77
2021/05/15 11:12:45;;;;;;;5.60;1.40;;;;;;;25.00;42.04;100048.19;125140;1099;104210;-77
2021/05/15 11:15:16;;;;;;;2.57;0.80;;;;;;;25.07;42.15;100039.89;125130;1099;104188;-77
2021/05/15 11:17:59;;;;;;;1.40;1.10;;;;;;;25.22;41.65;100040.33;125176;1099;104341;-78
2021/05/15 11:20:41;;;;;;;1.92;0.90;;;;;;;25.28;41.54;100050.87;125182;1099;104159;-76
2021/05/15 11:23:13;;;;;;;3.30;1.27;;;;;;;25.04;41.27;100050.73;125333;1102;104159;-77
2021/05/15 11:25:54;;;;;;;2.50;1.20;;;;;;;24.81;41.01;100054.11;126257;1099;104153;-76
2021/05/15 11:28:25;;;;;;;0.90;0.90;;;;;;;24.76;41.31;100056.03;126157;1099;104204;-76